KALO/ALO METAR and TAF weather

Enter ICAO airport designator
Station Type Date Time Source
KALO METAR 2020/01/21 20:54 UTC NOAA

KALO 212054Z 17012KT 9SM CLR M09/M13 A3038 RMK AO2 SLP310 T10941133 55035


Station Type Date Time Source
KALO Decoded METAR 2020/01/21 20:54 UTC NOAA

WATERLOO MUNICIPAL AIRPORT, IA, United States (KALO) 42-33N 92-24W 264M
Jan 21, 2020 - 03:54 PM EST / 2020.01.21 2054 UTC
Wind: from the S (170 degrees) at 14 MPH (12 KT):0
Visibility: 9 mile(s):0
Sky conditions: clear
Temperature: 15.1 F (-9.4 C)
Windchill: 0 F (-18 C):1
Dew Point: 8.1 F (-13.3 C)
Relative Humidity: 73%
Pressure (altimeter): 30.38 in. Hg (1028 hPa)
Pressure tendency: 0.10 inches (3.5 hPa) lower than three hours ago
ob: KALO 212054Z 17012KT 9SM CLR M09/M13 A3038 RMK AO2 SLP310 T10941133 55035
cycle: 21

Station Type Date Time Source
KALO TAF 2020/01/21 18:39 UTC NOAA

TAF KALO 211736Z 2118/2218 19010KT P6SM SCT250
FM220000 17011KT P6SM BKN250
FM220500 18013KT P6SM BKN250 WS020/21040KT
FM221300 18014KT P6SM OVC015
FM221500 18013KT 2SM -SN OVC010
FM221700 18013KT 1SM -SN OVC008

Example: see airport list